createdAt,value
2023-02-19T00:02:09.735Z,6.05
2023-02-19T00:07:26.027Z,5.60
2023-02-19T00:12:28.166Z,6.00
2023-02-19T00:17:33.714Z,6.82
2023-02-19T00:22:40.173Z,6.13
2023-02-19T00:27:48.509Z,6.75
2023-02-19T00:32:51.951Z,6.60
2023-02-19T00:37:54.405Z,6.63
2023-02-19T00:48:07.462Z,5.97
2023-02-19T00:53:16.129Z,6.40
2023-02-19T00:58:21.604Z,6.25
2023-02-19T01:03:34.216Z,6.07
2023-02-19T01:08:46.397Z,6.45
2023-02-19T01:13:53.402Z,7.35
2023-02-19T01:19:01.747Z,6.80
2023-02-19T01:24:08.923Z,7.20
2023-02-19T01:29:18.428Z,7.30
2023-02-19T01:34:24.977Z,6.93
2023-02-19T01:44:51.895Z,6.70
2023-02-19T01:50:04.060Z,8.20
2023-02-19T02:05:26.952Z,12.10
2023-02-19T02:10:39.978Z,8.85
2023-02-19T02:16:26.597Z,8.20
2023-02-19T02:22:33.722Z,7.65
2023-02-19T02:28:20.540Z,7.43
2023-02-19T02:33:54.187Z,7.03
2023-02-19T02:39:00.652Z,6.80
2023-02-19T02:44:09.072Z,6.43
2023-02-19T02:49:27.499Z,6.82
2023-02-19T02:54:55.233Z,7.72
2023-02-19T03:00:03.180Z,6.97
2023-02-19T03:05:42.558Z,7.57
2023-02-19T03:11:25.736Z,7.15
2023-02-19T03:16:56.292Z,8.70
2023-02-19T03:22:27.864Z,8.27
2023-02-19T03:27:47.040Z,8.52
2023-02-19T03:33:04.514Z,7.30
2023-02-19T03:38:39.400Z,9.32
2023-02-19T03:44:07.096Z,9.27
2023-02-19T03:49:37.852Z,8.75
2023-02-19T03:55:08.197Z,7.60
2023-02-19T04:00:39.579Z,6.63
2023-02-19T04:05:53.020Z,7.72
2023-02-19T04:11:10.929Z,7.50
2023-02-19T04:16:30.160Z,9.70
2023-02-19T04:21:39.120Z,7.35
2023-02-19T04:26:45.454Z,8.60
2023-02-19T04:31:50.721Z,7.32
2023-02-19T04:36:57.013Z,7.00
2023-02-19T04:42:03.591Z,6.93
2023-02-19T04:47:12.616Z,6.75
2023-02-19T04:52:18.541Z,7.78
2023-02-19T04:57:23.201Z,8.00
2023-02-19T05:11:55.771Z,9.23
2023-02-19T05:32:41.790Z,8.38
2023-02-19T05:37:48.391Z,7.55
2023-02-19T05:42:55.108Z,8.98
2023-02-19T05:47:59.849Z,8.85
2023-02-19T05:53:05.239Z,7.13
2023-02-19T05:58:10.622Z,8.30
2023-02-19T06:03:18.261Z,7.78
2023-02-19T06:08:29.457Z,7.72
2023-02-19T06:13:34.087Z,8.52
2023-02-19T06:18:47.389Z,8.70
2023-02-19T06:24:02.948Z,7.37
2023-02-19T06:29:07.532Z,8.57
2023-02-19T06:34:21.999Z,7.93
2023-02-19T06:39:27.248Z,8.73
2023-02-19T06:44:32.084Z,9.00
2023-02-19T06:49:44.449Z,7.93
2023-02-19T06:54:51.510Z,8.13
2023-02-19T07:00:00.435Z,8.90
2023-02-19T07:05:15.446Z,8.68
2023-02-19T07:10:20.855Z,9.18
2023-02-19T07:15:27.961Z,7.68
2023-02-19T07:20:30.985Z,8.65
2023-02-19T07:25:44.749Z,7.47
2023-02-19T07:31:04.163Z,7.97
2023-02-19T07:36:15.364Z,7.15
2023-02-19T07:41:23.452Z,5.80
2023-02-19T07:46:37.176Z,5.95
2023-02-19T07:51:42.409Z,6.85
2023-02-19T07:56:45.490Z,6.65
2023-02-19T08:02:10.359Z,6.40
2023-02-19T08:07:20.837Z,6.28
2023-02-19T08:12:43.491Z,6.60
2023-02-19T08:23:00.907Z,7.13
2023-02-19T08:28:09.319Z,7.45
2023-02-19T08:33:18.843Z,7.10
2023-02-19T08:38:26.522Z,7.40
2023-02-19T08:43:31.479Z,6.82
2023-02-19T08:48:38.616Z,8.52
2023-02-19T08:53:50.281Z,7.68
2023-02-19T08:59:04.708Z,7.80
2023-02-19T09:04:14.438Z,7.18
2023-02-19T09:09:21.021Z,8.45
2023-02-19T09:14:32.116Z,7.97
2023-02-19T09:19:49.426Z,7.72
2023-02-19T09:25:01.927Z,8.38
2023-02-19T09:30:05.506Z,6.95
2023-02-19T09:40:36.828Z,7.63
2023-02-19T09:45:41.505Z,7.07
2023-02-19T09:51:04.065Z,8.25
2023-02-19T09:56:07.621Z,8.35
2023-02-19T10:01:22.355Z,8.10
2023-02-19T10:06:30.350Z,8.07
2023-02-19T10:11:55.420Z,8.95
2023-02-19T10:17:10.239Z,7.95
2023-02-19T10:22:16.670Z,7.72
2023-02-19T10:27:20.745Z,7.82
2023-02-19T10:32:27.148Z,8.60
2023-02-19T10:37:34.791Z,8.65
2023-02-19T10:42:53.838Z,8.23
2023-02-19T10:48:07.504Z,8.75
2023-02-19T10:53:31.693Z,8.85
2023-02-19T10:58:46.201Z,9.23
2023-02-19T11:04:35.564Z,9.68
2023-02-19T11:10:32.756Z,8.70
2023-02-19T11:15:41.946Z,9.40
2023-02-19T11:21:00.460Z,8.65
2023-02-19T11:26:21.973Z,7.32
2023-02-19T11:31:40.417Z,7.95
2023-02-19T11:37:16.080Z,8.18
2023-02-19T11:42:51.488Z,6.88
2023-02-19T11:48:42.220Z,6.82
2023-02-19T11:53:54.288Z,8.20
2023-02-19T11:59:29.287Z,7.55
2023-02-19T12:04:50.662Z,7.40
2023-02-19T12:10:44.574Z,7.32
2023-02-19T12:22:36.270Z,8.18
2023-02-19T12:27:49.077Z,7.78
2023-02-19T12:33:09.756Z,7.03
2023-02-19T12:38:33.802Z,6.75
2023-02-19T12:44:03.624Z,7.40
2023-02-19T12:49:34.891Z,7.55
2023-02-19T12:54:47.846Z,7.80
2023-02-19T13:00:05.680Z,6.60
2023-02-19T13:05:47.604Z,6.78
2023-02-19T13:11:12.886Z,7.05
2023-02-19T13:16:26.197Z,7.70
2023-02-19T13:21:59.319Z,8.93
2023-02-19T13:27:44.657Z,8.27
2023-02-19T13:33:06.124Z,9.07
2023-02-19T13:38:17.629Z,7.72
2023-02-19T13:43:43.665Z,6.93
2023-02-19T13:48:48.776Z,7.18
2023-02-19T13:54:15.101Z,7.75
2023-02-19T13:59:40.562Z,7.97
2023-02-19T14:05:14.436Z,8.35
2023-02-19T14:11:06.277Z,7.47
2023-02-19T14:16:42.840Z,7.00
2023-02-19T14:21:50.492Z,6.03
2023-02-19T14:27:45.928Z,7.80
2023-02-19T14:33:12.172Z,6.57
2023-02-19T14:39:45.526Z,6.15
2023-02-19T14:45:11.881Z,5.25
2023-02-19T14:50:48.102Z,6.15
2023-02-19T14:56:18.264Z,6.07
2023-02-19T15:01:33.164Z,5.60
2023-02-19T15:06:39.392Z,5.85
2023-02-19T15:11:43.895Z,5.05
2023-02-19T15:16:53.989Z,5.80
2023-02-19T15:22:05.392Z,5.10
2023-02-19T15:27:20.990Z,5.45
2023-02-19T15:32:34.111Z,5.28
2023-02-19T15:37:45.936Z,5.45
2023-02-19T15:42:51.272Z,4.93
2023-02-19T15:48:01.074Z,5.25
2023-02-19T15:53:35.629Z,4.60
2023-02-19T15:58:55.872Z,4.43
2023-02-19T16:04:07.091Z,5.72
2023-02-19T16:09:29.008Z,5.93
2023-02-19T16:14:44.887Z,5.90
2023-02-19T16:20:12.735Z,5.10
2023-02-19T16:25:49.608Z,5.07
2023-02-19T16:31:09.557Z,4.80
2023-02-19T16:36:46.601Z,5.25
2023-02-19T16:41:56.210Z,5.38
2023-02-19T16:47:22.856Z,5.35
2023-02-19T16:52:38.667Z,4.72
2023-02-19T16:57:43.385Z,4.90
2023-02-19T17:02:52.416Z,4.15
2023-02-19T17:07:56.055Z,5.30
2023-02-19T17:13:04.841Z,4.82
2023-02-19T17:18:27.878Z,5.28
2023-02-19T17:23:41.521Z,5.10
2023-02-19T17:28:57.151Z,4.60
2023-02-19T17:34:12.204Z,5.53
2023-02-19T17:39:18.578Z,6.22
2023-02-19T17:44:24.329Z,5.88
2023-02-19T17:49:34.355Z,5.38
2023-02-19T17:54:40.115Z,5.18
2023-02-19T17:59:51.781Z,5.00
2023-02-19T18:05:00.400Z,5.60
2023-02-19T18:10:11.734Z,4.82
2023-02-19T18:15:29.932Z,5.30
2023-02-19T18:25:51.008Z,4.47
2023-02-19T18:30:56.951Z,5.78
2023-02-19T18:36:00.623Z,6.70
2023-02-19T18:41:05.995Z,6.35
2023-02-19T18:46:21.884Z,7.20
2023-02-19T18:51:29.267Z,6.55
2023-02-19T18:56:46.748Z,6.35
2023-02-19T19:01:55.274Z,7.38
2023-02-19T19:06:59.213Z,7.68
2023-02-19T19:12:06.963Z,7.55
2023-02-19T19:17:10.799Z,9.73
2023-02-19T19:22:23.005Z,9.75
2023-02-19T19:27:30.256Z,9.57
2023-02-19T19:32:36.300Z,10.52
2023-02-19T19:37:43.453Z,12.40
2023-02-19T19:43:01.416Z,12.23
2023-02-19T19:48:06.488Z,11.45
2023-02-19T19:53:13.278Z,13.27
2023-02-19T19:58:20.922Z,11.18
2023-02-19T20:03:29.505Z,11.05
2023-02-19T20:08:40.139Z,11.75
2023-02-19T20:13:59.464Z,11.70
2023-02-19T20:19:15.167Z,12.25
2023-02-19T20:24:19.826Z,11.93
2023-02-19T20:29:25.493Z,10.25
2023-02-19T20:34:53.881Z,10.38
2023-02-19T20:39:58.743Z,9.98
2023-02-19T20:45:07.718Z,9.25
2023-02-19T20:50:16.538Z,10.93
2023-02-19T20:55:22.445Z,10.20
2023-02-19T21:00:29.721Z,10.23
2023-02-19T21:05:32.615Z,10.88
2023-02-19T21:10:46.324Z,14.93
2023-02-19T21:15:53.018Z,11.00
2023-02-19T21:21:02.120Z,10.73
2023-02-19T21:26:07.931Z,10.57
2023-02-19T21:31:12.889Z,9.45
2023-02-19T21:36:20.331Z,9.57
2023-02-19T21:41:27.546Z,9.30
2023-02-19T21:46:35.539Z,9.68
2023-02-19T21:51:45.593Z,8.45
2023-02-19T21:56:53.707Z,8.95
2023-02-19T22:02:03.155Z,7.93
2023-02-19T22:07:11.423Z,8.52
2023-02-19T22:17:35.543Z,8.63
2023-02-19T22:22:44.537Z,8.80
2023-02-19T22:27:56.895Z,9.60
2023-02-19T22:33:04.062Z,7.70
2023-02-19T22:38:08.771Z,8.43
2023-02-19T22:43:25.188Z,10.23
2023-02-19T22:48:42.307Z,9.57
2023-02-19T22:54:00.670Z,9.15
2023-02-19T22:59:06.333Z,9.88
2023-02-19T23:04:13.838Z,10.10
2023-02-19T23:09:24.372Z,9.63
2023-02-19T23:14:35.928Z,9.60
2023-02-19T23:19:42.111Z,8.88
2023-02-19T23:24:54.569Z,9.37
2023-02-19T23:35:23.510Z,8.23
2023-02-19T23:40:29.430Z,9.05
2023-02-19T23:45:37.369Z,9.40
2023-02-19T23:50:42.467Z,9.13
2023-02-19T23:55:47.594Z,8.90
